createdAt,value
2023-05-12T00:02:03.610Z,39.44
2023-05-12T00:12:52.281Z,39.76
2023-05-12T00:23:37.751Z,40.01
2023-05-12T00:34:45.242Z,40.18
2023-05-12T00:44:54.734Z,40.58
2023-05-12T00:55:05.814Z,40.99
2023-05-12T01:05:15.450Z,41.07
2023-05-12T01:16:00.485Z,41.33
2023-05-12T01:26:11.517Z,41.58
2023-05-12T01:36:18.217Z,41.67
2023-05-12T01:46:23.433Z,41.92
2023-05-12T01:56:36.573Z,41.98
2023-05-12T02:07:27.369Z,42.15
2023-05-12T02:17:33.411Z,42.52
2023-05-12T02:27:45.347Z,42.88
2023-05-12T02:37:51.668Z,43.08
2023-05-12T02:48:08.204Z,43.35
2023-05-12T02:59:13.857Z,43.55
2023-05-12T03:09:42.235Z,43.63
2023-05-12T03:19:46.122Z,43.26
2023-05-12T03:30:35.803Z,42.52
2023-05-12T03:40:55.786Z,41.97
2023-05-12T03:51:01.874Z,40.82
2023-05-12T04:01:08.840Z,37.88
2023-05-12T04:11:14.350Z,27.98
2023-05-12T04:21:20.153Z,21.11
2023-05-12T04:32:27.560Z,16.45
2023-05-12T04:42:31.969Z,13.50
2023-05-12T04:52:40.256Z,11.66
2023-05-12T05:02:49.472Z,10.35
2023-05-12T05:13:03.279Z,9.45
2023-05-12T05:23:07.677Z,9.75
2023-05-12T05:33:14.347Z,12.68
2023-05-12T05:43:19.225Z,15.67
2023-05-12T05:54:26.686Z,18.61
2023-05-12T06:04:32.231Z,20.98
2023-05-12T06:14:41.238Z,22.58
2023-05-12T06:24:46.522Z,23.62
2023-05-12T06:35:32.057Z,24.21
2023-05-12T06:46:24.596Z,24.60
2023-05-12T06:56:30.560Z,25.05
2023-05-12T07:06:37.645Z,24.37
2023-05-12T07:17:46.172Z,23.49
2023-05-12T07:28:38.683Z,23.19
2023-05-12T07:38:45.900Z,23.15
2023-05-12T07:48:53.324Z,22.47
2023-05-12T07:59:02.612Z,21.95
2023-05-12T08:09:09.802Z,21.42
2023-05-12T08:19:14.969Z,20.94
2023-05-12T08:29:20.887Z,20.75
2023-05-12T08:39:31.339Z,20.55
2023-05-12T08:49:44.549Z,20.73
2023-05-12T08:59:59.565Z,20.84
2023-05-12T09:10:13.362Z,20.61
2023-05-12T09:20:31.797Z,20.50
2023-05-12T09:30:41.182Z,20.39
2023-05-12T09:40:48.566Z,20.43
2023-05-12T09:50:59.208Z,20.49
2023-05-12T10:01:21.713Z,20.42
2023-05-12T10:12:11.764Z,20.33
2023-05-12T10:23:20.746Z,20.04
2023-05-12T10:33:28.271Z,19.96
2023-05-12T10:43:44.136Z,19.80
2023-05-12T10:53:54.883Z,20.05
2023-05-12T11:05:29.722Z,19.89
2023-05-12T11:16:17.912Z,19.63
2023-05-12T11:26:31.729Z,19.84
2023-05-12T11:36:59.564Z,19.83
2023-05-12T11:48:16.742Z,19.77
2023-05-12T11:58:31.666Z,19.55
2023-05-12T12:08:41.163Z,19.71
2023-05-12T12:20:09.542Z,19.29
2023-05-12T12:30:16.190Z,18.83
2023-05-12T12:40:25.691Z,19.02
2023-05-12T12:50:39.566Z,18.94
2023-05-12T13:00:45.333Z,18.95
2023-05-12T13:10:51.258Z,19.03
2023-05-12T13:20:57.148Z,19.31
2023-05-12T13:31:03.586Z,18.94
2023-05-12T13:42:28.460Z,18.85
2023-05-12T13:53:35.288Z,18.15
2023-05-12T14:03:51.543Z,17.95
2023-05-12T14:14:01.023Z,17.96
2023-05-12T14:24:07.760Z,17.92
2023-05-12T14:34:16.671Z,17.81
2023-05-12T14:44:23.791Z,17.81
2023-05-12T14:54:31.288Z,18.06
2023-05-12T15:04:37.285Z,18.29
2023-05-12T15:14:41.618Z,18.14
2023-05-12T15:24:49.283Z,18.92
2023-05-12T15:34:57.987Z,19.28
2023-05-12T15:45:06.407Z,19.06
2023-05-12T15:56:28.403Z,19.36
2023-05-12T16:07:36.490Z,20.47
2023-05-12T16:17:43.713Z,21.34
2023-05-12T16:27:49.018Z,22.07
2023-05-12T16:38:53.710Z,22.62
2023-05-12T16:48:58.513Z,22.40
2023-05-12T16:59:07.918Z,22.67
2023-05-12T17:09:15.360Z,22.72
2023-05-12T17:19:19.051Z,22.80
2023-05-12T17:29:28.715Z,22.71
2023-05-12T17:39:33.082Z,22.99
2023-05-12T17:49:42.478Z,23.38
2023-05-12T17:59:49.066Z,23.80
2023-05-12T18:10:54.110Z,24.47
2023-05-12T18:21:01.297Z,25.24
2023-05-12T18:31:28.550Z,25.78
2023-05-12T18:42:19.306Z,26.48
2023-05-12T18:52:25.472Z,27.27
2023-05-12T19:03:10.133Z,28.15
2023-05-12T19:13:19.715Z,29.08
2023-05-12T19:24:01.430Z,30.11
2023-05-12T19:35:12.568Z,31.17
2023-05-12T19:46:01.284Z,31.78
2023-05-12T19:56:54.650Z,32.27
2023-05-12T20:07:03.104Z,33.06
2023-05-12T20:17:48.649Z,33.75
2023-05-12T20:27:55.615Z,34.13
2023-05-12T20:38:04.719Z,35.03
2023-05-12T20:48:13.797Z,35.13
2023-05-12T20:58:25.691Z,35.34
2023-05-12T21:08:39.329Z,35.81
2023-05-12T21:18:46.384Z,36.35
2023-05-12T21:29:52.057Z,36.79
2023-05-12T21:39:59.316Z,37.37
2023-05-12T21:50:08.432Z,37.71
2023-05-12T22:00:20.555Z,38.09
2023-05-12T22:10:28.226Z,38.34
2023-05-12T22:20:59.412Z,38.36
2023-05-12T22:31:06.709Z,39.00
2023-05-12T22:42:21.964Z,39.33
2023-05-12T22:53:23.417Z,39.83
2023-05-12T23:03:37.537Z,40.31
2023-05-12T23:14:44.915Z,40.45
2023-05-12T23:25:33.102Z,41.46
2023-05-12T23:35:50.840Z,42.40
2023-05-12T23:45:56.289Z,43.41
2023-05-12T23:56:20.828Z,43.09
